KZR966 UAAA-UACC
Flight info
| Callsign | KZR966 |
|---|---|
| Flight time | N/A |
| Altitude | 36000 |
| Route | ETEDA1J ETEDA W333 BANOS BANOS1D |
| Aircraft | A21N/M-SDE3FGHIRWY/LB1 |
Departure
| Time | 2026-04-25 10:10 |
|---|---|
| Airport | Almaty International Airport (UAAA) |
Arrival
| Time | N/A |
|---|---|
| Airport | Nursultan Nazarbayev International Airport (UACC) |
| Time | Latitude | Longitude | Altitude | Speed | Heading |
|---|---|---|---|---|---|
| 2026-04-25 09:34 | 43.34729 | 77.01282 | 2236 ft | 0 kts | 244° |
| 2026-04-25 10:00 | 43.34734 | 77.01294 | 2236 ft | 3 kts | 244° |
| 2026-04-25 10:00 | 43.34744 | 77.01323 | 2235 ft | 3 kts | 243° |
| 2026-04-25 10:00 | 43.34756 | 77.01356 | 2234 ft | 3 kts | 243° |
| 2026-04-25 10:00 | 43.34768 | 77.01388 | 2233 ft | 3 kts | 243° |
| 2026-04-25 10:01 | 43.34780 | 77.01419 | 2232 ft | 3 kts | 243° |
| 2026-04-25 10:01 | 43.34781 | 77.01421 | 2232 ft | 0 kts | 243° |
| 2026-04-25 10:04 | 43.34780 | 77.01419 | 2232 ft | 0 kts | 242° |
| 2026-04-25 10:04 | 43.34779 | 77.01417 | 2232 ft | 0 kts | 238° |
| 2026-04-25 10:04 | 43.34777 | 77.01414 | 2232 ft | 0 kts | 230° |
| 2026-04-25 10:05 | 43.34768 | 77.01404 | 2233 ft | 2 kts | 213° |
| 2026-04-25 10:05 | 43.34749 | 77.01400 | 2233 ft | 3 kts | 174° |
| 2026-04-25 10:05 | 43.34724 | 77.01413 | 2234 ft | 4 kts | 157° |
| 2026-04-25 10:05 | 43.34692 | 77.01431 | 2235 ft | 5 kts | 157° |
| 2026-04-25 10:06 | 43.34642 | 77.01458 | 2237 ft | 9 kts | 164° |
| 2026-04-25 10:06 | 43.34617 | 77.01465 | 2237 ft | 9 kts | 170° |
| 2026-04-25 10:06 | 43.34584 | 77.01474 | 2239 ft | 8 kts | 166° |
| 2026-04-25 10:06 | 43.34527 | 77.01502 | 2240 ft | 9 kts | 157° |
| 2026-04-25 10:07 | 43.34455 | 77.01546 | 2242 ft | 12 kts | 155° |
| 2026-04-25 10:07 | 43.34364 | 77.01605 | 2243 ft | 16 kts | 154° |
| 2026-04-25 10:07 | 43.34266 | 77.01668 | 2244 ft | 11 kts | 155° |
| 2026-04-25 10:07 | 43.34187 | 77.01721 | 2245 ft | 11 kts | 144° |
| 2026-04-25 10:08 | 43.34163 | 77.01825 | 2246 ft | 13 kts | 67° |
| 2026-04-25 10:08 | 43.34181 | 77.01863 | 2246 ft | 0 kts | 56° |
| 2026-04-25 10:08 | 43.34184 | 77.01871 | 2246 ft | 0 kts | 56° |
| 2026-04-25 10:09 | 43.34197 | 77.01897 | 2245 ft | 18 kts | 56° |
| 2026-04-25 10:09 | 43.34431 | 77.02361 | 2245 ft | 97 kts | 55° |
| 2026-04-25 10:09 | 43.34945 | 77.03399 | 2241 ft | 163 kts | 56° |
| 2026-04-25 10:09 | 43.35664 | 77.04844 | 2454 ft | 197 kts | 54° |
| 2026-04-25 10:10 | 43.36469 | 77.06404 | 3105 ft | 205 kts | 54° |
| 2026-04-25 10:10 | 43.37351 | 77.08115 | 3457 ft | 239 kts | 53° |
| 2026-04-25 10:10 | 43.38402 | 77.10144 | 3601 ft | 275 kts | 53° |
| 2026-04-25 10:10 | 43.39493 | 77.12244 | 3730 ft | 257 kts | 53° |
| 2026-04-25 10:11 | 43.40514 | 77.14211 | 3656 ft | 256 kts | 53° |
| 2026-04-25 10:11 | 43.41671 | 77.16106 | 3860 ft | 264 kts | 37° |
| 2026-04-25 10:11 | 43.43349 | 77.17127 | 4396 ft | 268 kts | 8° |
| 2026-04-25 10:11 | 43.45197 | 77.16898 | 5065 ft | 269 kts | 339° |
| 2026-04-25 10:12 | 43.46864 | 77.15731 | 5730 ft | 271 kts | 331° |
| 2026-04-25 10:12 | 43.48494 | 77.14481 | 6341 ft | 274 kts | 331° |
| 2026-04-25 10:12 | 43.51841 | 77.11957 | 7657 ft | 277 kts | 331° |
| 2026-04-25 10:13 | 43.53375 | 77.10378 | 8274 ft | 280 kts | 309° |
| 2026-04-25 10:13 | 43.54235 | 77.07986 | 8938 ft | 283 kts | 283° |
| 2026-04-25 10:13 | 43.54403 | 77.05308 | 9633 ft | 284 kts | 274° |
| 2026-04-25 10:13 | 43.54471 | 77.02573 | 10230 ft | 287 kts | 274° |
| 2026-04-25 10:14 | 43.54551 | 76.99836 | 10764 ft | 293 kts | 274° |
| 2026-04-25 10:14 | 43.54734 | 76.96992 | 11040 ft | 306 kts | 284° |
| 2026-04-25 10:14 | 43.55559 | 76.94234 | 11421 ft | 314 kts | 303° |
| 2026-04-25 10:14 | 43.56945 | 76.91948 | 11998 ft | 315 kts | 314° |
| 2026-04-25 10:15 | 43.58496 | 76.89758 | 12614 ft | 317 kts | 314° |
| 2026-04-25 10:15 | 43.60047 | 76.87584 | 13225 ft | 319 kts | 314° |
| 2026-04-25 10:15 | 43.61594 | 76.85402 | 13812 ft | 321 kts | 314° |
| 2026-04-25 10:15 | 43.63162 | 76.83177 | 14379 ft | 323 kts | 313° |
| 2026-04-25 10:16 | 43.64720 | 76.80954 | 14925 ft | 325 kts | 313° |
| 2026-04-25 10:16 | 43.66291 | 76.78709 | 15483 ft | 327 kts | 313° |
| 2026-04-25 10:16 | 43.67877 | 76.76437 | 16032 ft | 330 kts | 313° |
| 2026-04-25 10:16 | 43.69470 | 76.74151 | 16571 ft | 331 kts | 313° |
| 2026-04-25 10:17 | 43.71058 | 76.71872 | 17070 ft | 334 kts | 313° |
| 2026-04-25 10:17 | 43.72678 | 76.69556 | 17586 ft | 336 kts | 314° |
| 2026-04-25 10:17 | 43.74543 | 76.67613 | 18022 ft | 341 kts | 330° |
| 2026-04-25 10:17 | 43.76779 | 76.66438 | 18519 ft | 346 kts | 345° |
| 2026-04-25 10:18 | 43.79163 | 76.65935 | 19014 ft | 349 kts | 350° |
| 2026-04-25 10:18 | 43.81560 | 76.65540 | 19472 ft | 351 kts | 351° |
| 2026-04-25 10:18 | 43.83987 | 76.65147 | 19921 ft | 353 kts | 351° |
| 2026-04-25 10:18 | 43.86435 | 76.64744 | 20375 ft | 354 kts | 351° |
| 2026-04-25 10:19 | 43.88889 | 76.64333 | 20822 ft | 356 kts | 351° |
| 2026-04-25 10:19 | 43.91350 | 76.63915 | 21240 ft | 358 kts | 351° |
| 2026-04-25 10:19 | 43.93811 | 76.63494 | 21654 ft | 360 kts | 351° |
| 2026-04-25 10:19 | 43.96295 | 76.63068 | 22061 ft | 362 kts | 351° |
| 2026-04-25 10:20 | 43.98826 | 76.62632 | 22453 ft | 364 kts | 351° |
| 2026-04-25 10:20 | 44.01354 | 76.62196 | 22849 ft | 366 kts | 351° |
| 2026-04-25 10:20 | 44.03878 | 76.61761 | 23230 ft | 367 kts | 351° |
| 2026-04-25 10:20 | 44.06417 | 76.61322 | 23630 ft | 369 kts | 351° |
| 2026-04-25 10:21 | 44.08960 | 76.60882 | 24012 ft | 370 kts | 350° |
| 2026-04-25 10:21 | 44.11515 | 76.60441 | 24387 ft | 372 kts | 350° |
| 2026-04-25 10:21 | 44.14104 | 76.59959 | 24746 ft | 373 kts | 348° |
| 2026-04-25 10:21 | 44.16663 | 76.59289 | 25095 ft | 374 kts | 345° |
| 2026-04-25 10:22 | 44.19207 | 76.58467 | 25424 ft | 376 kts | 344° |
| 2026-04-25 10:22 | 44.20916 | 76.57896 | 25645 ft | 377 kts | 344° |
| 2026-04-25 10:22 | 44.24313 | 76.56752 | 26078 ft | 379 kts | 344° |
| 2026-04-25 10:22 | 44.26893 | 76.55886 | 26401 ft | 380 kts | 344° |
| 2026-04-25 10:23 | 44.29436 | 76.55034 | 26750 ft | 381 kts | 344° |
| 2026-04-25 10:23 | 44.32029 | 76.54144 | 27109 ft | 380 kts | 343° |
| 2026-04-25 10:23 | 44.34542 | 76.53149 | 27535 ft | 377 kts | 339° |
| 2026-04-25 10:23 | 44.37004 | 76.51868 | 27670 ft | 381 kts | 336° |
| 2026-04-25 10:24 | 44.39499 | 76.50402 | 27883 ft | 385 kts | 335° |
| 2026-04-25 10:24 | 44.41960 | 76.48939 | 28174 ft | 386 kts | 335° |
| 2026-04-25 10:24 | 44.44403 | 76.47489 | 28464 ft | 387 kts | 335° |
| 2026-04-25 10:24 | 44.46894 | 76.46018 | 28733 ft | 389 kts | 335° |
| 2026-04-25 10:25 | 44.49409 | 76.44537 | 28996 ft | 390 kts | 335° |
| 2026-04-25 10:25 | 44.51897 | 76.43074 | 29263 ft | 391 kts | 335° |
| 2026-04-25 10:25 | 44.31867 | 76.66632 | 29264 ft | 391 kts | 335° |